SBTC

Details ICAO SBTC (UNA)
Name Hotel Transamerica
Region Brazil
Timezone America/Bahia (UTC-3.0)
Plans Departing 14
Arriving 20
Stats Elevation 20 ft / 6 m (AMSL)
Location -15.354800° -38.998700°
Runways 1
Magnetic Variation 23.825° W
Sunrise 2019-08-24 08:48:52 UTC / 2019-08-24 05:48:52 Local
Sunset 2019-08-24 20:31:02 UTC / 2019-08-24 17:31:02 Local
Advertisement - Login to hide

Runways

ID Width Length Bearing (true/mag) Surface Threshold Overrun Markings Lighting
02 98 ft / 30 m 6,604 ft / 2,013 m 354.04° / 17.87° ASPHALT 335 ft / 102 m 0 ft / 0 m APP EDGE THRESHOLD
20 98 ft / 30 m 6,604 ft / 2,013 m 174.04° / 197.87° ASPHALT 0 ft / 0 m 0 ft / 0 m APP EDGE THRESHOLD

Map

Weather


0- 5 10 15 20 25 30 35+ Temperature / °C

Clouds and Precipitation
Forecast for 2019-08-24 18:00 UTC. Updated 4 hours ago

Ground ~20,000 ft ~40,000 ft Winds

METAR

SBTC 241900Z 09005KT 9999 FEW020 26/21 Q1020

TAF

Not found

Frequencies

Unicom 130.25 MHz Hotel Transamerica RADIO
Warning: Do not use this data for real-world aviation or navigation. No guarantee of current accuracy is given.